createdAt,value
2019-02-12T00:00:41.786Z,84.41
2019-02-12T00:01:51.701Z,84.6
2019-02-12T00:03:01.625Z,84.13
2019-02-12T00:04:11.547Z,84.41
2019-02-12T00:05:21.475Z,84.32
2019-02-12T00:06:31.421Z,84.32
2019-02-12T00:07:41.347Z,84.41
2019-02-12T00:08:51.287Z,84.41
2019-02-12T00:10:01.204Z,84.98
2019-02-12T00:11:11.120Z,85.17
2019-02-12T00:12:21.041Z,85.45
2019-02-12T00:13:30.957Z,85.17
2019-02-12T00:14:40.869Z,85.45
2019-02-12T00:15:50.791Z,84.98
2019-02-12T00:17:00.821Z,85.64
2019-02-12T00:18:10.729Z,84.51
2019-02-12T00:19:20.684Z,83.75
2019-02-12T00:20:30.597Z,83.56
2019-02-12T00:21:42.413Z,82.81
2019-02-12T00:22:52.473Z,82.24
2019-02-12T00:24:02.385Z,82.38
2019-02-12T00:25:12.308Z,82.53
2019-02-12T00:26:22.240Z,82.43
2019-02-12T00:27:32.151Z,82.38
2019-02-12T00:28:42.206Z,82.19
2019-02-12T00:29:52.120Z,82.57
2019-02-12T00:31:02.039Z,81.72
2019-02-12T00:32:11.948Z,81.72
2019-02-12T00:33:21.858Z,80.58
2019-02-12T00:34:31.624Z,80.58
2019-02-12T00:35:41.534Z,80.58
2019-02-12T00:36:51.448Z,79.08
2019-02-12T00:38:01.358Z,78.89
2019-02-12T00:39:11.277Z,78.6
2019-02-12T00:40:21.292Z,79.08
2019-02-12T00:41:31.206Z,80.11
2019-02-12T00:42:41.131Z,80.77
2019-02-12T00:43:51.041Z,81.96
2019-02-12T00:45:01.006Z,82.53
2019-02-12T00:46:11.056Z,83.47
2019-02-12T00:47:20.965Z,83.94
2019-02-12T00:48:30.941Z,84.88
2019-02-12T00:49:40.854Z,85.45
2019-02-12T00:50:50.813Z,85.92
2019-02-12T00:52:00.727Z,86.02
2019-02-12T00:53:10.389Z,86.77
2019-02-12T00:54:20.296Z,86.68
2019-02-12T00:55:31.798Z,87.43
2019-02-12T00:56:41.712Z,87.34
2019-02-12T00:57:51.727Z,87.34
2019-02-12T00:59:01.637Z,87.52
2019-02-12T01:00:11.557Z,87.9
2019-02-12T01:01:21.473Z,87.34
2019-02-12T01:02:31.382Z,87.34
2019-02-12T01:03:41.456Z,87.81
2019-02-12T01:04:51.377Z,88.09
2019-02-12T01:06:01.289Z,87.9
2019-02-12T01:07:11.207Z,88.75
2019-02-12T01:08:20.881Z,88.56
2019-02-12T01:09:30.793Z,87.62
2019-02-12T01:10:40.704Z,87.43
2019-02-12T01:11:50.619Z,87.71
2019-02-12T01:13:00.531Z,87.99
2019-02-12T01:14:10.458Z,87.9
2019-02-12T01:15:20.474Z,87.62
2019-02-12T01:16:30.386Z,88.28
2019-02-12T01:17:40.371Z,88.28
2019-02-12T01:18:50.278Z,88.09
2019-02-12T01:20:00.231Z,88.56
2019-02-12T01:21:10.149Z,88.47
2019-02-12T01:22:20.062Z,88.65
2019-02-12T01:23:29.983Z,88.56
2019-02-12T01:24:39.913Z,88.09
2019-02-12T01:25:49.845Z,88.94
2019-02-12T01:26:59.759Z,89.13
2019-02-12T01:28:09.674Z,89.51
2019-02-12T01:29:19.597Z,89.13
2019-02-12T01:30:29.507Z,88.84
2019-02-12T01:31:39.436Z,88.47
2019-02-12T01:32:49.463Z,88.47
2019-02-12T01:33:59.153Z,87.71
2019-02-12T01:35:09.075Z,87.62
2019-02-12T01:36:18.992Z,87.9
2019-02-12T01:37:28.899Z,87.81
2019-02-12T01:38:38.585Z,87.81
2019-02-12T01:39:48.497Z,87.99
2019-02-12T01:40:58.417Z,87.9
2019-02-12T01:42:08.337Z,88.47
2019-02-12T01:43:18.254Z,88.47
2019-02-12T01:44:28.220Z,90.07
2019-02-12T01:45:38.133Z,90.36
2019-02-12T01:46:48.051Z,90.07
2019-02-12T01:47:57.965Z,89.79
2019-02-12T01:49:07.883Z,90.07
2019-02-12T01:50:17.892Z,89.41
2019-02-12T01:51:34.878Z,89.6
2019-02-12T01:52:45.067Z,89.22
2019-02-12T01:53:54.727Z,89.13
2019-02-12T01:55:04.650Z,89.03
2019-02-12T01:56:14.570Z,88.56
2019-02-12T01:57:24.495Z,88.28
2019-02-12T01:58:34.407Z,88.37
2019-02-12T01:59:44.316Z,87.99
2019-02-12T02:00:54.224Z,87.62
2019-02-12T02:02:04.202Z,87.81
2019-02-12T02:03:14.166Z,87.62
2019-02-12T02:04:24.083Z,87.62
2019-02-12T02:05:33.992Z,88.28
2019-02-12T02:06:43.907Z,88.18
2019-02-12T02:07:53.816Z,88.09
2019-02-12T02:09:03.727Z,87.62
2019-02-12T02:10:13.641Z,87.9
2019-02-12T02:11:23.556Z,87.62
2019-02-12T02:12:33.499Z,88.09
2019-02-12T02:13:43.572Z,88.47
2019-02-12T02:14:53.506Z,88.47
2019-02-12T02:16:03.416Z,88.37
2019-02-12T02:17:13.334Z,88.37
2019-02-12T02:18:23.248Z,88.94
2019-02-12T02:19:33.208Z,88.94
2019-02-12T02:20:43.118Z,88.75
2019-02-12T02:21:53.051Z,88.94
2019-02-12T02:23:02.976Z,88.84
2019-02-12T02:24:12.887Z,89.46
2019-02-12T02:25:22.920Z,89.27
2019-02-12T02:26:32.835Z,89.37
2019-02-12T02:27:42.746Z,89.56
2019-02-12T02:28:52.657Z,90.12
2019-02-12T02:30:02.746Z,89.93
2019-02-12T02:31:12.777Z,90.31
2019-02-12T02:32:22.723Z,90.41
2019-02-12T02:33:32.635Z,90.69
2019-02-12T02:34:42.551Z,90.69
2019-02-12T02:35:52.464Z,90.69
2019-02-12T02:37:02.499Z,91.35
2019-02-12T02:38:12.414Z,91.44
2019-02-12T02:39:22.338Z,91.91
2019-02-12T02:40:32.338Z,92
2019-02-12T02:41:42.330Z,92.38
2019-02-12T02:42:52.386Z,92.57
2019-02-12T02:44:02.307Z,92.57
2019-02-12T02:45:12.241Z,92.19
2019-02-12T02:46:22.188Z,92.38
2019-02-12T02:47:32.103Z,92.47
2019-02-12T02:48:42.034Z,92.66
2019-02-12T02:49:51.966Z,92.57
2019-02-12T02:51:01.888Z,92.38
2019-02-12T02:52:11.833Z,92.38
2019-02-12T02:53:21.745Z,92.57
2019-02-12T02:54:31.664Z,92.66
2019-02-12T02:55:41.576Z,92.47
2019-02-12T02:56:51.517Z,92.1
2019-02-12T02:58:01.458Z,92.38
2019-02-12T02:59:11.377Z,92.66
2019-02-12T03:00:21.345Z,92.47
2019-02-12T03:01:31.276Z,91.82
2019-02-12T03:02:41.220Z,91.82
2019-02-12T03:03:51.157Z,91.82
2019-02-12T03:05:01.150Z,92.57
2019-02-12T03:06:11.219Z,92.38
2019-02-12T03:07:21.130Z,92
2019-02-12T03:08:30.800Z,91.25
2019-02-12T03:09:40.724Z,91.35
2019-02-12T03:10:52.224Z,91.35
2019-02-12T03:12:02.362Z,91.35
2019-02-12T03:13:12.272Z,91.44
2019-02-12T03:14:22.190Z,91.35
2019-02-12T03:15:32.128Z,90.88
2019-02-12T03:16:42.039Z,90.97
2019-02-12T03:17:52.049Z,91.44
2019-02-12T03:19:01.961Z,91.16
2019-02-12T03:20:11.882Z,90.97
2019-02-12T03:21:21.799Z,90.88
2019-02-12T03:22:31.719Z,91.06
2019-02-12T03:23:41.739Z,90.59
2019-02-12T03:24:51.697Z,90.03
2019-02-12T03:26:01.623Z,90.03
2019-02-12T03:27:11.351Z,89.56
2019-02-12T03:28:21.291Z,89.27
2019-02-12T03:29:31.344Z,89.27
2019-02-12T03:30:41.271Z,88.71
2019-02-12T03:31:51.219Z,88.99
2019-02-12T03:33:01.206Z,89.37
2019-02-12T03:34:10.918Z,88.89
2019-02-12T03:35:20.978Z,88.99
2019-02-12T03:36:30.896Z,89.46
2019-02-12T03:37:40.811Z,90.03
2019-02-12T03:38:50.729Z,89.65
2019-02-12T03:40:00.642Z,90.59
2019-02-12T03:41:10.601Z,90.69
2019-02-12T03:42:20.516Z,90.97
2019-02-12T03:43:30.437Z,91.25
2019-02-12T03:44:40.358Z,91.25
2019-02-12T03:45:50.305Z,91.63
2019-02-12T03:47:00.360Z,92.47
2019-02-12T03:48:10.270Z,92.95
2019-02-12T03:49:19.959Z,93.04
2019-02-12T03:50:29.876Z,93.13
2019-02-12T03:51:39.826Z,92.57
2019-02-12T03:52:49.841Z,92.85
2019-02-12T03:53:59.756Z,92.38
2019-02-12T03:55:09.696Z,91.63
2019-02-12T03:56:19.618Z,91.25
2019-02-12T03:57:29.538Z,90.78
2019-02-12T03:58:39.547Z,91.44
2019-02-12T03:59:49.459Z,91.35
2019-02-12T04:00:59.382Z,91.53
2019-02-12T04:02:09.298Z,92.1
2019-02-12T04:03:19.234Z,92.57
2019-02-12T04:04:29.201Z,92.57
2019-02-12T04:05:38.877Z,92.29
2019-02-12T04:06:48.793Z,92.1
2019-02-12T04:07:58.716Z,92.47
2019-02-12T04:09:08.627Z,92.85
2019-02-12T04:10:18.586Z,92.95
2019-02-12T04:11:28.513Z,92.57
2019-02-12T04:12:38.432Z,92.19
2019-02-12T04:13:48.377Z,92.43
2019-02-12T04:14:58.049Z,92.33
2019-02-12T04:16:08.115Z,94.31
2019-02-12T04:17:18.026Z,95.26
2019-02-12T04:18:27.942Z,95.64
2019-02-12T04:19:37.871Z,95.64
2019-02-12T04:20:47.789Z,95.07
2019-02-12T04:21:57.812Z,95.45
2019-02-12T04:23:07.759Z,95.92
2019-02-12T04:24:17.675Z,96.11
2019-02-12T04:25:27.604Z,95.82
2019-02-12T04:26:37.267Z,96.01
2019-02-12T04:27:47.233Z,95.45
2019-02-12T04:28:58.365Z,96.77
2019-02-12T04:30:08.319Z,97.19
2019-02-12T04:31:18.252Z,97.14
2019-02-12T04:32:28.186Z,98.41
2019-02-12T04:33:38.198Z,98.04
2019-02-12T04:34:48.203Z,97.56
2019-02-12T04:35:58.122Z,97.56
2019-02-12T04:37:08.075Z,97.19
2019-02-12T04:38:18.013Z,96.15
2019-02-12T04:39:27.999Z,95.68
2019-02-12T04:40:37.918Z,95.21
2019-02-12T04:41:47.834Z,94.74
2019-02-12T04:42:57.748Z,94.65
2019-02-12T04:44:07.671Z,95.02
2019-02-12T04:45:17.697Z,94.65
2019-02-12T04:46:27.609Z,94.65
2019-02-12T04:47:37.553Z,94.65
2019-02-12T04:48:47.465Z,93.8
2019-02-12T04:49:57.389Z,94.36
2019-02-12T04:51:07.401Z,93.89
2019-02-12T04:52:17.336Z,94.46
2019-02-12T04:53:36.890Z,94.74
2019-02-12T04:54:46.805Z,94.93
2019-02-12T04:55:56.744Z,95.02
2019-02-12T04:57:06.753Z,94.93
2019-02-12T04:58:16.660Z,94.46
2019-02-12T04:59:26.782Z,93.98
2019-02-12T05:00:36.702Z,92.85
2019-02-12T05:01:46.624Z,92.85
2019-02-12T05:02:56.549Z,93.23
2019-02-12T05:04:06.472Z,92.95
2019-02-12T05:05:16.391Z,93.23
2019-02-12T05:06:26.304Z,93.7
2019-02-12T05:07:36.245Z,93.61
2019-02-12T05:08:46.343Z,93.98
2019-02-12T05:09:56.257Z,94.46
2019-02-12T05:11:06.190Z,94.74
2019-02-12T05:12:16.120Z,95.02
2019-02-12T05:13:26.029Z,94.55
2019-02-12T05:14:36.133Z,94.46
2019-02-12T05:15:46.046Z,93.8
2019-02-12T05:16:55.962Z,94.36
2019-02-12T05:18:05.880Z,94.74
2019-02-12T05:19:15.811Z,93.7
2019-02-12T05:20:25.770Z,93.51
2019-02-12T05:21:35.690Z,94.36
2019-02-12T05:22:46.423Z,93.8
2019-02-12T05:23:56.333Z,93.89
2019-02-12T05:25:06.786Z,94.46
2019-02-12T05:26:16.816Z,94.55
2019-02-12T05:27:26.732Z,94.74
2019-02-12T05:28:36.737Z,94.74
2019-02-12T05:29:46.670Z,95.12
2019-02-12T05:30:56.584Z,95.02
2019-02-12T05:32:06.504Z,94.65
2019-02-12T05:33:16.416Z,95.02
2019-02-12T05:34:26.348Z,94.93
2019-02-12T05:35:36.274Z,94.74
2019-02-12T05:36:46.198Z,94.74
2019-02-12T05:37:56.283Z,94.93
2019-02-12T05:39:06.216Z,94.08
2019-02-12T05:40:16.129Z,93.23
2019-02-12T05:41:26.046Z,92.85
2019-02-12T05:42:35.992Z,92.76
2019-02-12T05:43:46.009Z,92.85
2019-02-12T05:44:55.928Z,92.95
2019-02-12T05:46:05.597Z,92.95
2019-02-12T05:47:15.517Z,92.85
2019-02-12T05:48:25.436Z,93.13
2019-02-12T05:49:35.481Z,92.76
2019-02-12T05:50:45.426Z,92.85
2019-02-12T05:51:55.375Z,93.13
2019-02-12T05:53:06.712Z,93.23
2019-02-12T05:54:16.726Z,93.13
2019-02-12T05:55:26.495Z,93.13
2019-02-12T05:56:36.428Z,93.8
2019-02-12T05:57:46.363Z,93.04
2019-02-12T05:58:56.280Z,92.47
2019-02-12T06:00:06.217Z,92.29
2019-02-12T06:01:16.231Z,92.85
2019-02-12T06:02:26.142Z,92.19
2019-02-12T06:03:36.057Z,91.91
2019-02-12T06:04:45.994Z,91.44
2019-02-12T06:05:55.937Z,90.97
2019-02-12T06:07:05.953Z,91.25
2019-02-12T06:08:15.864Z,91.35
2019-02-12T06:09:25.775Z,91.25
2019-02-12T06:10:35.745Z,91.16
2019-02-12T06:11:45.861Z,91.63
2019-02-12T06:12:55.837Z,91.91
2019-02-12T06:14:05.515Z,92.47
2019-02-12T06:15:15.425Z,92.38
2019-02-12T06:16:25.353Z,92
2019-02-12T06:17:35.291Z,92.47
2019-02-12T06:18:45.262Z,92.47
2019-02-12T06:19:55.191Z,91.72
2019-02-12T06:21:05.150Z,91.63
2019-02-12T06:22:15.067Z,91.67
2019-02-12T06:23:24.982Z,90.92
2019-02-12T06:24:34.890Z,90.55
2019-02-12T06:25:44.815Z,89.88
2019-02-12T06:26:54.740Z,89.32
2019-02-12T06:28:04.664Z,88.47
2019-02-12T06:29:14.577Z,88.37
2019-02-12T06:30:24.600Z,89.27
2019-02-12T06:31:34.541Z,89.37
2019-02-12T06:32:44.231Z,89.65
2019-02-12T06:33:54.150Z,90.31
2019-02-12T06:35:04.079Z,90.22
2019-02-12T06:36:14.068Z,90.17
2019-02-12T06:37:23.996Z,89.32
2019-02-12T06:38:33.917Z,88.84
2019-02-12T06:39:43.848Z,88.75
2019-02-12T06:40:53.794Z,89.32
2019-02-12T06:42:03.767Z,89.6
2019-02-12T06:43:13.439Z,88.56
2019-02-12T06:44:23.377Z,88.61
2019-02-12T06:45:33.313Z,89.18
2019-02-12T06:46:43.246Z,89.13
2019-02-12T06:47:53.291Z,89.88
2019-02-12T06:49:03.205Z,90.26
2019-02-12T06:50:13.122Z,89.69
2019-02-12T06:51:23.056Z,89.41
2019-02-12T06:52:33.408Z,89.41
2019-02-12T06:53:43.398Z,88.37
2019-02-12T06:54:53.313Z,87.81
2019-02-12T06:56:03.314Z,87.52
2019-02-12T06:57:13.246Z,87.71
2019-02-12T06:58:23.172Z,87.52
2019-02-12T06:59:33.147Z,87.62
2019-02-12T07:00:43.078Z,87.62
2019-02-12T07:01:53.004Z,88.18
2019-02-12T07:03:02.924Z,88.09
2019-02-12T07:04:12.853Z,88.65
2019-02-12T07:05:22.874Z,88.33
2019-02-12T07:06:32.788Z,88.71
2019-02-12T07:07:42.722Z,88.42
2019-02-12T07:08:52.654Z,88.71
2019-02-12T07:10:03.101Z,89.37
2019-02-12T07:11:13.122Z,89.37
2019-02-12T07:12:23.038Z,89.37
2019-02-12T07:13:32.974Z,88.99
2019-02-12T07:14:42.894Z,89.08
2019-02-12T07:15:52.825Z,89.56
2019-02-12T07:17:02.790Z,90.69
2019-02-12T07:18:12.716Z,90.12
2019-02-12T07:19:22.627Z,90.59
2019-02-12T07:20:32.579Z,90.97
2019-02-12T07:21:42.523Z,90.59
2019-02-12T07:22:52.485Z,91.16
2019-02-12T07:24:02.402Z,91.25
2019-02-12T07:25:12.318Z,90.88
2019-02-12T07:26:22.239Z,91.06
2019-02-12T07:27:32.163Z,91.25
2019-02-12T07:28:42.141Z,91.82
2019-02-12T07:29:52.061Z,91.72
2019-02-12T07:31:01.983Z,91.91
2019-02-12T07:32:11.953Z,91.86
2019-02-12T07:33:21.879Z,92
2019-02-12T07:34:31.905Z,91.39
2019-02-12T07:35:41.847Z,91.96
2019-02-12T07:36:51.789Z,92.43
2019-02-12T07:38:01.770Z,92.71
2019-02-12T07:39:11.690Z,91.86
2019-02-12T07:40:21.703Z,91.67
2019-02-12T07:41:31.614Z,91.49
2019-02-12T07:42:41.529Z,91.49
2019-02-12T07:43:51.465Z,92.14
2019-02-12T07:45:01.196Z,92.05
2019-02-12T07:46:11.250Z,91.2
2019-02-12T07:47:21.159Z,90.92
2019-02-12T07:48:31.083Z,90.92
2019-02-12T07:49:41.019Z,89.13
2019-02-12T07:50:50.949Z,90.26
2019-02-12T07:52:00.932Z,90.73
2019-02-12T07:53:10.610Z,90.64
2019-02-12T07:54:20.545Z,91.2
2019-02-12T07:55:30.472Z,91.39
2019-02-12T07:56:40.406Z,91.11
2019-02-12T07:57:50.423Z,90.73
2019-02-12T07:59:00.356Z,91.02
2019-02-12T08:00:10.275Z,90.73
2019-02-12T08:01:20.190Z,90.45
2019-02-12T08:02:30.110Z,90.26
2019-02-12T08:03:41.579Z,90.73
2019-02-12T08:04:51.493Z,90.55
2019-02-12T08:06:01.449Z,90.55
2019-02-12T08:07:11.374Z,90.36
2019-02-12T08:08:21.288Z,90.07
2019-02-12T08:09:31.300Z,89.88
2019-02-12T08:10:41.231Z,89.79
2019-02-12T08:11:51.152Z,90.07
2019-02-12T08:13:01.074Z,90.36
2019-02-12T08:14:10.985Z,90.55
2019-02-12T08:15:21.036Z,90.73
2019-02-12T08:16:30.982Z,90.45
2019-02-12T08:17:40.902Z,90.55
2019-02-12T08:18:50.820Z,90.26
2019-02-12T08:20:00.769Z,90.17
2019-02-12T08:21:10.746Z,89.36
2019-02-12T08:22:20.682Z,89.27
2019-02-12T08:23:30.607Z,88.7
2019-02-12T08:24:48.747Z,88.89
2019-02-12T08:25:58.673Z,88.7
2019-02-12T08:27:08.751Z,88.13
2019-02-12T08:28:18.686Z,88.23
2019-02-12T08:29:28.628Z,88.04
2019-02-12T08:30:38.549Z,88.42
2019-02-12T08:31:48.484Z,88.6
2019-02-12T08:32:58.506Z,87.38
2019-02-12T08:34:08.423Z,87.76
2019-02-12T08:35:18.338Z,87.29
2019-02-12T08:36:28.268Z,87.29
2019-02-12T08:37:38.203Z,87
2019-02-12T08:38:48.149Z,87.57
2019-02-12T08:39:57.945Z,87.85
2019-02-12T08:41:08.084Z,87.66
2019-02-12T08:42:18.012Z,87.38
2019-02-12T08:43:27.957Z,87.66
2019-02-12T08:44:37.942Z,87.57
2019-02-12T08:45:47.635Z,88.6
2019-02-12T08:46:57.565Z,88.04
2019-02-12T08:48:07.481Z,87.95
2019-02-12T08:49:17.424Z,87.85
2019-02-12T08:50:27.354Z,88.51
2019-02-12T08:51:37.268Z,89.17
2019-02-12T08:52:47.192Z,88.75
2019-02-12T08:53:57.163Z,89.03
2019-02-12T08:55:07.117Z,88.75
2019-02-12T08:56:17.152Z,88.75
2019-02-12T08:57:27.075Z,88.75
2019-02-12T08:58:36.991Z,88.65
2019-02-12T08:59:46.912Z,88.65
2019-02-12T09:00:56.840Z,87.8
2019-02-12T09:02:06.907Z,87.14
2019-02-12T09:03:16.827Z,86.95
2019-02-12T09:04:26.743Z,86.57
2019-02-12T09:05:36.678Z,86.38
2019-02-12T09:06:46.615Z,86.57
2019-02-12T09:07:56.589Z,86.57
2019-02-12T09:09:06.519Z,85.91
2019-02-12T09:10:16.520Z,86.48
2019-02-12T09:11:26.449Z,86.29
2019-02-12T09:12:36.422Z,86.57
2019-02-12T09:13:46.454Z,86.38
2019-02-12T09:14:56.376Z,86.38
2019-02-12T09:16:06.312Z,86.67
2019-02-12T09:17:16.259Z,86.48
2019-02-12T09:18:26.196Z,85.91
2019-02-12T09:19:36.217Z,85.91
2019-02-12T09:20:46.158Z,85.25
2019-02-12T09:21:56.098Z,85.91
2019-02-12T09:23:06.048Z,85.91
2019-02-12T09:24:15.977Z,85.72
2019-02-12T09:25:26.007Z,85.91
2019-02-12T09:26:35.944Z,85.35
2019-02-12T09:27:45.859Z,86.01
2019-02-12T09:28:55.782Z,85.16
2019-02-12T09:30:05.730Z,85.82
2019-02-12T09:31:15.713Z,86.01
2019-02-12T09:32:25.402Z,86.19
2019-02-12T09:33:35.328Z,86.95
2019-02-12T09:34:45.244Z,86.48
2019-02-12T09:35:55.164Z,86.38
2019-02-12T09:37:05.108Z,86.48
2019-02-12T09:38:15.039Z,86.38
2019-02-12T09:39:24.962Z,86.1
2019-02-12T09:40:34.884Z,86.67
2019-02-12T09:41:44.802Z,86.76
2019-02-12T09:42:54.785Z,86.33
2019-02-12T09:44:04.708Z,86.62
2019-02-12T09:45:14.625Z,86.15
2019-02-12T09:46:24.543Z,85.86
2019-02-12T09:47:34.471Z,85.77
2019-02-12T09:48:44.499Z,85.11
2019-02-12T09:49:54.432Z,84.82
2019-02-12T09:51:04.112Z,84.92
2019-02-12T09:52:14.055Z,84.73
2019-02-12T09:53:23.983Z,85.2
2019-02-12T09:54:33.999Z,85.01
2019-02-12T09:55:43.921Z,85.11
2019-02-12T09:56:53.889Z,85.11
2019-02-12T09:58:03.831Z,85.77
2019-02-12T09:59:13.749Z,85.68
2019-02-12T10:00:23.677Z,85.11
2019-02-12T10:01:33.607Z,85.49
2019-02-12T10:02:43.301Z,85.58
2019-02-12T10:03:53.229Z,85.68
2019-02-12T10:05:03.159Z,85.49
2019-02-12T10:06:21.441Z,85.39
2019-02-12T10:07:32.281Z,85.39
2019-02-12T10:08:42.502Z,85.11
2019-02-12T10:09:52.433Z,84.82
2019-02-12T10:11:02.352Z,85.01
2019-02-12T10:12:12.371Z,84.82
2019-02-12T10:13:22.299Z,85.11
2019-02-12T10:14:32.220Z,84.45
2019-02-12T10:15:42.153Z,84.73
2019-02-12T10:16:52.074Z,84.45
2019-02-12T10:18:01.986Z,84.45
2019-02-12T10:19:11.997Z,84.54
2019-02-12T10:20:21.977Z,84.73
2019-02-12T10:21:31.926Z,84.35
2019-02-12T10:22:41.606Z,84.54
2019-02-12T10:23:51.654Z,84.35
2019-02-12T10:25:01.596Z,84.54
2019-02-12T10:26:11.530Z,84.54
2019-02-12T10:27:21.449Z,84.82
2019-02-12T10:28:31.376Z,84.73
2019-02-12T10:29:41.407Z,83.97
2019-02-12T10:30:51.383Z,83.78
2019-02-12T10:32:10.750Z,84.07
2019-02-12T10:33:20.669Z,84.54
2019-02-12T10:34:30.618Z,83.97
2019-02-12T10:35:40.590Z,83.78
2019-02-12T10:36:50.531Z,83.78
2019-02-12T10:38:00.457Z,84.07
2019-02-12T10:39:10.391Z,83.97
2019-02-12T10:40:20.338Z,83.59
2019-02-12T10:41:30.388Z,83.97
2019-02-12T10:42:40.305Z,84.64
2019-02-12T10:43:50.221Z,84.54
2019-02-12T10:45:00.345Z,84.54
2019-02-12T10:46:10.322Z,84.73
2019-02-12T10:47:20.338Z,84.64
2019-02-12T10:48:30.938Z,85.01
2019-02-12T10:49:40.863Z,85.68
2019-02-12T10:50:50.800Z,85.86
2019-02-12T10:52:00.720Z,85.58
2019-02-12T10:53:11.445Z,85.39
2019-02-12T10:54:28.666Z,85.86
2019-02-12T10:55:38.581Z,85.96
2019-02-12T10:56:48.504Z,85.58
2019-02-12T10:57:58.646Z,86.05
2019-02-12T10:59:09.444Z,85.3
2019-02-12T11:00:19.742Z,85.39
2019-02-12T11:01:29.660Z,85.3
2019-02-12T11:02:39.572Z,85.58
2019-02-12T11:03:49.492Z,85.01
2019-02-12T11:04:59.516Z,85.11
2019-02-12T11:06:09.432Z,85.77
2019-02-12T11:07:19.357Z,85.2
2019-02-12T11:08:29.270Z,85.24
2019-02-12T11:09:39.191Z,85.53
2019-02-12T11:10:48.861Z,85.53
2019-02-12T11:11:58.781Z,85.43
2019-02-12T11:13:08.702Z,85.72
2019-02-12T11:14:18.620Z,85.05
2019-02-12T11:15:28.538Z,84.58
2019-02-12T11:16:38.558Z,84.58
2019-02-12T11:17:48.488Z,84.68
2019-02-12T11:18:58.403Z,84.68
2019-02-12T11:20:08.323Z,84.68
2019-02-12T11:21:18.251Z,84.11
2019-02-12T11:22:28.222Z,84.68
2019-02-12T11:23:38.139Z,84.11
2019-02-12T11:24:48.055Z,84.11
2019-02-12T11:25:57.969Z,83.54
2019-02-12T11:27:07.897Z,83.36
2019-02-12T11:28:17.871Z,83.36
2019-02-12T11:29:27.794Z,83.26
2019-02-12T11:30:38.087Z,83.64
2019-02-12T11:31:48.010Z,83.17
2019-02-12T11:32:57.928Z,83.07
2019-02-12T11:34:07.945Z,83.45
2019-02-12T11:35:19.174Z,82.98
2019-02-12T11:36:29.091Z,83.36
2019-02-12T11:37:39.021Z,82.88
2019-02-12T11:38:48.938Z,82.88
2019-02-12T11:39:58.958Z,82.79
2019-02-12T11:41:08.630Z,83.07
2019-02-12T11:42:18.544Z,82.88
2019-02-12T11:43:28.468Z,82.79
2019-02-12T11:44:38.385Z,82.98
2019-02-12T11:45:48.402Z,83.07
2019-02-12T11:46:58.324Z,83.45
2019-02-12T11:48:08.246Z,83.17
2019-02-12T11:49:18.162Z,82.69
2019-02-12T11:50:28.108Z,83.17
2019-02-12T11:51:38.123Z,83.45
2019-02-12T11:52:47.794Z,83.36
2019-02-12T11:53:57.710Z,82.88
2019-02-12T11:55:07.626Z,83.07
2019-02-12T11:56:17.577Z,82.79
2019-02-12T11:57:27.548Z,82.88
2019-02-12T11:58:37.471Z,83.36
2019-02-12T11:59:47.394Z,83.36
2019-02-12T12:00:57.614Z,83.36
2019-02-12T12:02:07.532Z,83.36
2019-02-12T12:03:17.548Z,83.45
2019-02-12T12:04:27.466Z,83.54
2019-02-12T12:05:37.390Z,83.73
2019-02-12T12:06:47.314Z,83.73
2019-02-12T12:07:57.229Z,83.83
2019-02-12T12:09:07.255Z,83.83
2019-02-12T12:10:17.183Z,83.54
2019-02-12T12:11:27.113Z,83.73
2019-02-12T12:12:37.033Z,83.26
2019-02-12T12:13:46.959Z,82.79
2019-02-12T12:14:56.930Z,82.88
2019-02-12T12:16:06.860Z,83.54
2019-02-12T12:17:16.777Z,84.2
2019-02-12T12:18:26.711Z,83.83
2019-02-12T12:19:36.624Z,83.92
2019-02-12T12:20:46.592Z,83.17
2019-02-12T12:21:56.527Z,83.12
2019-02-12T12:23:06.458Z,82.84
2019-02-12T12:24:16.378Z,83.69
2019-02-12T12:25:26.294Z,83.78
2019-02-12T12:26:36.273Z,84.45
2019-02-12T12:27:46.197Z,84.35
2019-02-12T12:28:56.124Z,84.73
2019-02-12T12:30:06.049Z,84.82
2019-02-12T12:31:15.974Z,84.54
2019-02-12T12:32:25.994Z,84.54
2019-02-12T12:33:35.914Z,85.11
2019-02-12T12:34:45.832Z,85.49
2019-02-12T12:35:55.791Z,85.58
2019-02-12T12:37:05.715Z,85.3
2019-02-12T12:38:15.679Z,85.49
2019-02-12T12:39:25.619Z,84.92
2019-02-12T12:40:35.542Z,83.78
2019-02-12T12:41:45.456Z,83.54
2019-02-12T12:42:55.377Z,83.36
2019-02-12T12:44:05.428Z,83.64
2019-02-12T12:45:15.143Z,84.49
2019-02-12T12:46:24.818Z,84.58
2019-02-12T12:47:34.506Z,84.01
2019-02-12T12:48:44.420Z,84.11
2019-02-12T12:49:54.403Z,84.58
2019-02-12T12:51:04.493Z,83.92
2019-02-12T12:52:14.419Z,84.3
2019-02-12T12:53:24.405Z,84.58
2019-02-12T12:54:34.327Z,84.58
2019-02-12T12:55:44.356Z,83.92
2019-02-12T12:56:54.336Z,83.92
2019-02-12T12:58:04.257Z,83.54
2019-02-12T12:59:13.927Z,83.17
2019-02-12T13:00:23.842Z,84.01
2019-02-12T13:01:33.888Z,84.2
2019-02-12T13:02:43.818Z,84.11
2019-02-12T13:03:53.783Z,84.39
2019-02-12T13:05:05.151Z,84.58
2019-02-12T13:06:16.372Z,84.26
2019-02-12T13:07:27.804Z,85.01
2019-02-12T13:08:39.170Z,84.77
2019-02-12T13:09:49.196Z,85.11
2019-02-12T13:10:58.861Z,84.92
2019-02-12T13:12:08.776Z,85.01
2019-02-12T13:13:19.399Z,84.92
2019-02-12T13:14:30.988Z,85.58
2019-02-12T13:15:40.986Z,85.49
2019-02-12T13:16:50.915Z,85.86
2019-02-12T13:18:02.180Z,85.2
2019-02-12T13:19:12.277Z,85.39
2019-02-12T13:20:22.192Z,85.96
2019-02-12T13:21:32.107Z,86.24
2019-02-12T13:22:42.070Z,86.71
2019-02-12T13:23:51.980Z,86.71
2019-02-12T13:25:10.946Z,86.9
2019-02-12T13:26:20.860Z,87.37
2019-02-12T13:27:30.779Z,86.99
2019-02-12T13:28:40.701Z,86.9
2019-02-12T13:29:50.619Z,87.37
2019-02-12T13:31:00.595Z,87.28
2019-02-12T13:32:10.515Z,87.75
2019-02-12T13:33:20.437Z,87.85
2019-02-12T13:34:31.848Z,87.94
2019-02-12T13:35:41.761Z,88.13
2019-02-12T13:36:51.681Z,88.13
2019-02-12T13:38:01.595Z,88.32
2019-02-12T13:39:11.549Z,88.32
2019-02-12T13:40:21.475Z,88.04
2019-02-12T13:41:31.394Z,87.85
2019-02-12T13:42:41.370Z,88.6
2019-02-12T13:43:52.487Z,88.89
2019-02-12T13:45:02.401Z,88.79
2019-02-12T13:46:12.322Z,89.36
2019-02-12T13:47:22.309Z,89.17
2019-02-12T13:48:32.332Z,89.45
2019-02-12T13:49:42.256Z,89.07
2019-02-12T13:50:52.182Z,89.54
2019-02-12T13:52:02.105Z,88.79
2019-02-12T13:53:12.036Z,88.89
2019-02-12T13:54:22.054Z,89.22
2019-02-12T13:55:31.973Z,89.26
2019-02-12T13:56:41.900Z,89.92
2019-02-12T13:57:51.813Z,90.54
2019-02-12T13:59:01.748Z,90.45
2019-02-12T14:00:11.766Z,90.82
2019-02-12T14:01:21.699Z,91.67
2019-02-12T14:02:31.628Z,92.43
2019-02-12T14:03:41.597Z,92.33
2019-02-12T14:04:51.843Z,92.24
2019-02-12T14:06:01.892Z,92.61
2019-02-12T14:07:11.788Z,92.61
2019-02-12T14:08:21.750Z,92.52
2019-02-12T14:09:31.671Z,92.33
2019-02-12T14:10:41.585Z,92.52
2019-02-12T14:11:51.610Z,92.33
2019-02-12T14:13:01.524Z,93.18
2019-02-12T14:14:11.466Z,92.8
2019-02-12T14:15:22.374Z,92.71
2019-02-12T14:16:32.291Z,92.33
2019-02-12T14:17:42.254Z,92.43
2019-02-12T14:18:52.191Z,92.33
2019-02-12T14:20:02.106Z,92.61
2019-02-12T14:21:12.022Z,93.18
2019-02-12T14:22:21.934Z,92.8
2019-02-12T14:23:31.963Z,92.9
2019-02-12T14:24:41.879Z,93.28
2019-02-12T14:25:51.816Z,93.28
2019-02-12T14:27:01.733Z,93.18
2019-02-12T14:28:11.647Z,93.84
2019-02-12T14:29:21.664Z,93.75
2019-02-12T14:30:31.632Z,94.03
2019-02-12T14:31:41.558Z,94.6
2019-02-12T14:33:00.346Z,94.7
2019-02-12T14:34:10.257Z,95.07
2019-02-12T14:35:19.922Z,94.98
2019-02-12T14:36:29.840Z,95.07
2019-02-12T14:37:39.759Z,94.6
2019-02-12T14:38:49.714Z,95.07
2019-02-12T14:40:01.046Z,95.45
2019-02-12T14:41:10.823Z,95.73
2019-02-12T14:42:20.747Z,95.83
2019-02-12T14:43:30.667Z,96.01
2019-02-12T14:44:40.587Z,96.68
2019-02-12T14:45:50.537Z,96.58
2019-02-12T14:47:00.561Z,97.43
2019-02-12T14:48:10.241Z,97.62
2019-02-12T14:49:20.154Z,97.34
2019-02-12T14:50:30.071Z,97.43
2019-02-12T14:51:39.995Z,98.1
2019-02-12T14:52:50.010Z,98.1
2019-02-12T14:53:59.936Z,98.1
2019-02-12T14:55:10.255Z,99.13
2019-02-12T14:56:20.188Z,98.94
2019-02-12T14:57:30.114Z,99.51
2019-02-12T14:58:40.082Z,99.51
2019-02-12T14:59:50.017Z,99.88
2019-02-12T15:00:59.954Z,99.98
2019-02-12T15:02:09.868Z,99.88
2019-02-12T15:03:19.783Z,99.99
2019-02-12T15:04:29.803Z,99.99